createdAt,value
2019-04-06T00:01:29.689Z,91.80
2019-04-06T00:03:01.943Z,91.60
2019-04-06T00:04:34.189Z,91.50
2019-04-06T00:06:06.419Z,91.40
2019-04-06T00:07:38.672Z,91.50
2019-04-06T00:09:10.808Z,91.50
2019-04-06T00:10:43.087Z,91.90
2019-04-06T00:12:15.324Z,91.40
2019-04-06T00:13:47.410Z,91.40
2019-04-06T00:15:19.560Z,91.50
2019-04-06T00:16:51.710Z,91.50
2019-04-06T00:18:23.943Z,91.80
2019-04-06T00:19:57.988Z,91.80
2019-04-06T00:21:30.118Z,91.70
2019-04-06T00:23:02.382Z,91.60
2019-04-06T00:24:34.620Z,91.90
2019-04-06T00:26:06.840Z,92.10
2019-04-06T00:27:39.090Z,91.90
2019-04-06T00:29:11.299Z,92.20
2019-04-06T00:31:08.998Z,92.20
2019-04-06T00:33:03.155Z,92.00
2019-04-06T00:34:35.310Z,91.80
2019-04-06T00:36:07.424Z,91.80
2019-04-06T00:37:39.716Z,91.60
2019-04-06T00:39:11.986Z,91.80
2019-04-06T00:40:44.278Z,91.60
2019-04-06T00:42:16.472Z,91.70
2019-04-06T00:43:48.570Z,91.70
2019-04-06T00:45:20.693Z,91.60
2019-04-06T00:46:53.042Z,91.50
2019-04-06T00:48:25.297Z,91.70
2019-04-06T00:49:57.505Z,91.70
2019-04-06T00:51:29.666Z,91.80
2019-04-06T00:53:01.796Z,91.70
2019-04-06T00:54:33.904Z,91.70
2019-04-06T00:56:06.126Z,92.00
2019-04-06T00:57:38.257Z,91.70
2019-04-06T00:59:10.449Z,91.50
2019-04-06T01:00:42.707Z,91.60
2019-04-06T01:02:15.087Z,91.40
2019-04-06T01:03:47.361Z,91.40
2019-04-06T01:05:19.618Z,91.60
2019-04-06T01:06:51.866Z,91.40
2019-04-06T01:08:24.006Z,91.50
2019-04-06T01:09:56.134Z,91.40
2019-04-06T01:11:28.353Z,91.40
2019-04-06T01:13:00.635Z,91.40
2019-04-06T01:14:32.812Z,91.50
2019-04-06T01:16:06.204Z,91.60
2019-04-06T01:17:39.412Z,91.40
2019-04-06T01:19:11.775Z,91.40
2019-04-06T01:20:44.156Z,91.40
2019-04-06T01:22:16.430Z,91.70
2019-04-06T01:23:48.653Z,91.90
2019-04-06T01:25:20.815Z,91.60
2019-04-06T01:26:53.058Z,91.60
2019-04-06T01:28:25.193Z,91.60
2019-04-06T01:29:57.301Z,91.60
2019-04-06T01:31:29.447Z,91.60
2019-04-06T01:33:01.548Z,91.50
2019-04-06T01:34:33.653Z,91.70
2019-04-06T01:36:05.858Z,91.60
2019-04-06T01:37:38.061Z,91.70
2019-04-06T01:39:10.149Z,91.90
2019-04-06T01:40:42.390Z,91.80
2019-04-06T01:42:14.554Z,91.80
2019-04-06T01:43:46.756Z,91.80
2019-04-06T01:45:18.988Z,91.70
2019-04-06T01:46:51.220Z,91.80
2019-04-06T01:48:23.553Z,92.00
2019-04-06T01:49:55.808Z,92.30
2019-04-06T01:51:28.105Z,92.10
2019-04-06T01:53:00.213Z,92.70
2019-04-06T01:54:32.450Z,92.40
2019-04-06T01:56:04.584Z,92.60
2019-04-06T01:57:36.822Z,92.50
2019-04-06T01:59:09.113Z,92.60
2019-04-06T02:00:51.340Z,92.60
2019-04-06T02:02:27.298Z,92.60
2019-04-06T02:03:59.532Z,92.40
2019-04-06T02:05:31.611Z,92.90
2019-04-06T02:07:03.864Z,92.50
2019-04-06T02:08:35.995Z,92.30
2019-04-06T02:10:08.244Z,92.20
2019-04-06T02:11:40.518Z,92.20
2019-04-06T02:13:12.782Z,92.10
2019-04-06T02:14:44.954Z,92.00
2019-04-06T02:16:17.156Z,92.00
2019-04-06T02:17:49.412Z,92.20
2019-04-06T02:19:21.503Z,92.00
2019-04-06T02:20:53.737Z,91.90
2019-04-06T02:22:25.863Z,92.00
2019-04-06T02:23:58.122Z,91.90
2019-04-06T02:25:30.262Z,91.80
2019-04-06T02:27:02.605Z,91.80
2019-04-06T02:28:36.816Z,91.80
2019-04-06T02:30:21.570Z,91.90
2019-04-06T02:32:31.211Z,92.00
2019-04-06T02:34:22.967Z,92.10
2019-04-06T02:36:04.176Z,92.00
2019-04-06T02:37:53.387Z,92.00
2019-04-06T02:39:54.082Z,92.00
2019-04-06T02:41:54.727Z,92.00
2019-04-06T02:43:29.750Z,91.90
2019-04-06T02:45:02.125Z,92.20
2019-04-06T02:46:34.421Z,92.20
2019-04-06T02:48:06.667Z,92.20
2019-04-06T02:49:38.903Z,92.40
2019-04-06T02:51:11.361Z,92.60
2019-04-06T02:52:43.728Z,92.70
2019-04-06T02:54:15.811Z,92.70
2019-04-06T02:55:48.091Z,92.60
2019-04-06T02:57:20.243Z,92.60
2019-04-06T02:58:52.410Z,92.50
2019-04-06T03:00:26.695Z,92.40
2019-04-06T03:01:59.001Z,92.30
2019-04-06T03:03:31.269Z,92.30
2019-04-06T03:05:03.948Z,92.30
2019-04-06T03:06:36.061Z,92.30
2019-04-06T03:08:08.306Z,92.30
2019-04-06T03:09:40.819Z,92.30
2019-04-06T03:11:13.192Z,92.30
2019-04-06T03:12:45.323Z,92.30
2019-04-06T03:14:17.647Z,92.20
2019-04-06T03:15:49.823Z,92.30
2019-04-06T03:17:21.933Z,92.10
2019-04-06T03:18:54.214Z,92.20
2019-04-06T03:20:26.502Z,92.30
2019-04-06T03:21:58.851Z,92.50
2019-04-06T03:23:31.021Z,92.20
2019-04-06T03:25:03.991Z,92.50
2019-04-06T03:26:36.117Z,92.80
2019-04-06T03:28:08.337Z,92.60
2019-04-06T03:29:40.561Z,92.60
2019-04-06T03:31:13.137Z,93.00
2019-04-06T03:32:45.665Z,92.70
2019-04-06T03:34:21.623Z,92.50
2019-04-06T03:35:52.526Z,92.60
2019-04-06T03:37:24.964Z,93.00
2019-04-06T03:38:57.214Z,92.60
2019-04-06T03:40:29.576Z,92.80
2019-04-06T03:42:01.879Z,92.80
2019-04-06T03:43:34.311Z,92.80
2019-04-06T03:45:06.822Z,92.80
2019-04-06T03:46:39.065Z,93.00
2019-04-06T03:48:11.423Z,93.00
2019-04-06T03:49:43.872Z,93.00
2019-04-06T03:51:16.075Z,92.90
2019-04-06T03:52:48.326Z,93.00
2019-04-06T03:54:20.765Z,93.20
2019-04-06T03:55:53.347Z,93.40
2019-04-06T03:57:25.715Z,93.00
2019-04-06T03:58:58.175Z,93.00
2019-04-06T04:00:30.439Z,93.20
2019-04-06T04:02:02.572Z,93.20
2019-04-06T04:03:34.741Z,93.20
2019-04-06T04:05:06.984Z,93.10
2019-04-06T04:06:39.368Z,93.00
2019-04-06T04:08:11.640Z,93.00
2019-04-06T04:09:44.017Z,93.20
2019-04-06T04:11:16.155Z,93.10
2019-04-06T04:12:48.267Z,93.10
2019-04-06T04:14:20.407Z,93.20
2019-04-06T04:15:56.337Z,93.10
2019-04-06T04:17:27.168Z,93.10
2019-04-06T04:18:59.518Z,93.00
2019-04-06T04:20:31.697Z,93.10
2019-04-06T04:22:03.869Z,93.00
2019-04-06T04:23:36.147Z,92.90
2019-04-06T04:25:08.531Z,93.20
2019-04-06T04:26:40.885Z,93.10
2019-04-06T04:28:13.030Z,93.30
2019-04-06T04:29:45.368Z,93.40
2019-04-06T04:31:17.601Z,93.30
2019-04-06T04:32:50.213Z,93.30
2019-04-06T04:34:22.645Z,93.30
2019-04-06T04:35:54.923Z,93.30
2019-04-06T04:37:27.382Z,93.00
2019-04-06T04:38:59.777Z,92.80
2019-04-06T04:40:32.142Z,92.70
2019-04-06T04:42:04.574Z,93.20
2019-04-06T04:43:36.791Z,92.80
2019-04-06T04:45:10.890Z,92.70
2019-04-06T04:46:43.031Z,92.70
2019-04-06T04:48:15.245Z,92.70
2019-04-06T04:49:47.346Z,92.70
2019-04-06T04:51:19.656Z,92.90
2019-04-06T04:52:51.956Z,92.80
2019-04-06T04:56:58.671Z,92.70
2019-04-06T05:02:04.842Z,92.70
2019-04-06T05:03:37.107Z,92.70
2019-04-06T05:05:09.968Z,93.00
2019-04-06T05:06:42.286Z,93.00
2019-04-06T05:08:14.672Z,93.00
2019-04-06T05:09:46.952Z,93.10
2019-04-06T05:11:19.177Z,93.00
2019-04-06T05:12:51.458Z,92.90
2019-04-06T05:14:58.270Z,92.90
2019-04-06T05:16:30.371Z,92.80
2019-04-06T05:18:02.576Z,92.90
2019-04-06T05:19:34.690Z,92.80
2019-04-06T05:21:06.914Z,92.70
2019-04-06T05:22:39.191Z,92.80
2019-04-06T05:24:11.317Z,92.80
2019-04-06T05:25:43.596Z,93.00
2019-04-06T05:27:15.707Z,93.00
2019-04-06T05:28:47.946Z,92.90
2019-04-06T05:30:20.204Z,93.10
2019-04-06T05:31:52.456Z,93.10
2019-04-06T05:33:24.847Z,93.20
2019-04-06T05:34:58.344Z,93.30
2019-04-06T05:36:30.880Z,93.30
2019-04-06T05:38:03.035Z,93.10
2019-04-06T05:39:35.263Z,93.20
2019-04-06T05:41:07.544Z,93.30
2019-04-06T05:42:39.678Z,93.40
2019-04-06T05:44:11.977Z,93.90
2019-04-06T05:45:44.110Z,93.40
2019-04-06T05:47:16.277Z,93.20
2019-04-06T05:48:48.460Z,93.30
2019-04-06T05:50:20.851Z,93.10
2019-04-06T05:51:53.086Z,93.10
2019-04-06T05:53:25.349Z,93.40
2019-04-06T05:54:57.972Z,93.40
2019-04-06T05:56:30.184Z,93.10
2019-04-06T05:58:04.584Z,93.00
2019-04-06T05:59:40.327Z,93.40
2019-04-06T06:01:11.339Z,93.30
2019-04-06T06:02:43.660Z,93.20
2019-04-06T06:04:15.908Z,93.20
2019-04-06T06:05:48.071Z,92.90
2019-04-06T06:07:20.250Z,92.90
2019-04-06T06:08:52.490Z,92.80
2019-04-06T06:10:24.730Z,92.70
2019-04-06T06:11:57.024Z,92.60
2019-04-06T06:13:30.483Z,92.80
2019-04-06T06:15:03.298Z,93.00
2019-04-06T06:16:35.540Z,92.70
2019-04-06T06:18:07.813Z,92.70
2019-04-06T06:19:40.108Z,92.60
2019-04-06T06:21:12.297Z,92.70
2019-04-06T06:22:44.644Z,92.70
2019-04-06T06:24:16.877Z,92.90
2019-04-06T06:25:50.028Z,92.60
2019-04-06T06:27:23.015Z,92.60
2019-04-06T06:28:55.976Z,92.50
2019-04-06T06:30:28.223Z,92.40
2019-04-06T06:32:00.474Z,92.30
2019-04-06T06:33:32.621Z,92.10
2019-04-06T06:35:05.293Z,92.10
2019-04-06T06:36:37.567Z,92.10
2019-04-06T06:38:10.203Z,92.00
2019-04-06T06:39:42.363Z,92.40
2019-04-06T06:41:14.640Z,92.50
2019-04-06T06:42:47.056Z,92.60
2019-04-06T06:44:19.287Z,92.60
2019-04-06T06:45:51.564Z,92.50
2019-04-06T06:47:23.729Z,92.30
2019-04-06T06:48:55.958Z,92.30
2019-04-06T06:50:28.030Z,92.20
2019-04-06T06:52:00.329Z,92.00
2019-04-06T06:53:32.568Z,91.80
2019-04-06T06:55:05.233Z,91.60
2019-04-06T06:56:37.649Z,91.60
2019-04-06T06:58:09.914Z,91.50
2019-04-06T06:59:42.089Z,91.40
2019-04-06T07:01:14.389Z,91.60
2019-04-06T07:02:46.621Z,91.60
2019-04-06T07:04:18.865Z,91.60
2019-04-06T07:05:51.136Z,91.50
2019-04-06T07:07:23.274Z,91.30
2019-04-06T07:08:55.421Z,91.40
2019-04-06T07:10:27.576Z,91.60
2019-04-06T07:11:59.968Z,91.10
2019-04-06T07:13:32.187Z,91.00
2019-04-06T07:15:05.520Z,91.00
2019-04-06T07:16:37.876Z,91.00
2019-04-06T07:18:10.013Z,90.90
2019-04-06T07:19:42.310Z,91.10
2019-04-06T07:21:16.565Z,90.90
2019-04-06T07:22:48.730Z,91.40
2019-04-06T07:24:20.929Z,91.40
2019-04-06T07:25:58.746Z,91.40
2019-04-06T07:27:27.351Z,91.10
2019-04-06T07:28:59.446Z,91.10
2019-04-06T07:30:31.565Z,90.90
2019-04-06T07:32:03.693Z,90.70
2019-04-06T07:33:35.849Z,90.50
2019-04-06T07:35:08.315Z,90.30
2019-04-06T07:36:40.511Z,90.30
2019-04-06T07:38:12.804Z,90.20
2019-04-06T07:39:45.128Z,90.20
2019-04-06T07:41:17.427Z,90.20
2019-04-06T07:42:49.800Z,90.30
2019-04-06T07:44:22.158Z,90.30
2019-04-06T07:45:54.494Z,90.40
2019-04-06T07:47:26.560Z,90.10
2019-04-06T07:49:07.911Z,90.20
2019-04-06T07:50:32.765Z,90.20
2019-04-06T07:52:05.064Z,90.10
2019-04-06T07:53:37.177Z,89.90
2019-04-06T07:55:09.479Z,90.00
2019-04-06T07:56:41.620Z,90.10
2019-04-06T07:58:13.882Z,89.60
2019-04-06T07:59:45.972Z,89.00
2019-04-06T08:01:18.365Z,87.50
2019-04-06T08:02:50.537Z,86.80
2019-04-06T08:04:22.679Z,84.00
2019-04-06T08:05:54.910Z,83.90
2019-04-06T08:07:27.296Z,82.90
2019-04-06T08:08:59.551Z,82.40
2019-04-06T08:10:31.840Z,81.00
2019-04-06T08:12:03.989Z,81.10
2019-04-06T08:13:36.076Z,80.20
2019-04-06T08:15:08.299Z,80.00
2019-04-06T08:16:40.532Z,79.80
2019-04-06T08:18:12.752Z,78.80
2019-04-06T08:19:44.864Z,78.40
2019-04-06T08:21:19.603Z,77.80
2019-04-06T08:22:51.289Z,77.30
2019-04-06T08:24:23.402Z,77.50
2019-04-06T08:25:55.676Z,76.30
2019-04-06T08:27:27.792Z,76.30
2019-04-06T08:29:02.232Z,74.90
2019-04-06T08:30:44.712Z,74.90
2019-04-06T08:32:08.246Z,74.60
2019-04-06T08:33:40.510Z,70.30
2019-04-06T08:35:23.955Z,69.30
2019-04-06T08:36:47.088Z,70.70
2019-04-06T08:38:19.184Z,71.20
2019-04-06T08:39:51.555Z,70.50
2019-04-06T08:41:23.667Z,67.10
2019-04-06T08:42:56.141Z,67.20
2019-04-06T08:44:28.272Z,68.60
2019-04-06T08:46:00.575Z,66.50
2019-04-06T08:47:32.749Z,65.80
2019-04-06T08:49:04.845Z,62.70
2019-04-06T08:50:37.104Z,62.50
2019-04-06T08:52:11.413Z,66.00
2019-04-06T08:53:43.270Z,64.70
2019-04-06T08:55:15.436Z,65.30
2019-04-06T08:56:47.709Z,61.20
2019-04-06T08:58:20.137Z,62.70
2019-04-06T08:59:52.472Z,64.00
2019-04-06T09:01:24.613Z,62.90
2019-04-06T09:02:56.722Z,59.10
2019-04-06T09:04:28.987Z,61.60
2019-04-06T09:06:01.232Z,59.50
2019-04-06T09:07:33.374Z,60.20
2019-04-06T09:09:06.030Z,59.60
2019-04-06T09:10:38.391Z,59.40
2019-04-06T09:12:10.530Z,56.90
2019-04-06T09:13:42.725Z,57.80
2019-04-06T09:15:16.456Z,56.40
2019-04-06T09:16:48.636Z,55.80
2019-04-06T09:18:20.840Z,57.20
2019-04-06T09:19:53.045Z,56.00
2019-04-06T09:21:25.200Z,54.80
2019-04-06T09:22:57.519Z,53.90
2019-04-06T09:24:29.789Z,54.90
2019-04-06T09:26:02.219Z,55.70
2019-04-06T09:27:34.487Z,56.30
2019-04-06T09:29:06.735Z,56.70
2019-04-06T09:30:38.813Z,55.80
2019-04-06T09:32:11.081Z,55.30
2019-04-06T09:33:43.300Z,54.90
2019-04-06T09:35:15.398Z,55.50
2019-04-06T09:36:47.536Z,54.90
2019-04-06T09:38:19.762Z,54.60
2019-04-06T09:39:52.001Z,53.20
2019-04-06T09:41:26.122Z,51.40
2019-04-06T09:42:58.631Z,52.40
2019-04-06T09:44:39.909Z,53.70
2019-04-06T09:46:27.853Z,51.70
2019-04-06T09:48:09.787Z,50.30
2019-04-06T09:50:01.539Z,52.70
2019-04-06T09:51:52.433Z,52.00
2019-04-06T09:53:50.506Z,50.00
2019-04-06T09:55:37.906Z,51.50
2019-04-06T09:57:28.468Z,49.90
2019-04-06T09:59:13.576Z,48.50
2019-04-06T10:01:20.236Z,49.10
2019-04-06T10:03:04.495Z,48.90
2019-04-06T10:04:53.253Z,48.60
2019-04-06T10:06:44.451Z,48.70
2019-04-06T10:08:46.708Z,47.10
2019-04-06T10:10:44.124Z,49.00
2019-04-06T10:12:38.622Z,47.80
2019-04-06T10:14:25.136Z,48.30
2019-04-06T10:16:19.682Z,46.70
2019-04-06T10:18:20.575Z,48.50
2019-04-06T10:20:12.386Z,48.20
2019-04-06T10:21:57.557Z,48.50
2019-04-06T10:23:49.264Z,46.20
2019-04-06T10:25:52.976Z,47.50
2019-04-06T10:27:51.002Z,49.10
2019-04-06T10:29:48.260Z,47.70
2019-04-06T10:31:53.236Z,47.60
2019-04-06T10:33:43.557Z,47.50
2019-04-06T10:35:34.283Z,45.90
2019-04-06T10:37:26.161Z,47.00
2019-04-06T10:39:15.028Z,46.90
2019-04-06T10:41:05.517Z,47.70
2019-04-06T10:42:56.172Z,46.60
2019-04-06T10:44:41.265Z,46.10
2019-04-06T10:46:28.938Z,46.50
2019-04-06T10:48:26.921Z,47.20
2019-04-06T10:50:19.805Z,47.40
2019-04-06T10:52:26.728Z,47.20
2019-04-06T10:54:05.425Z,47.10
2019-04-06T10:55:43.830Z,46.10
2019-04-06T10:57:30.640Z,46.00
2019-04-06T10:59:17.198Z,44.80
2019-04-06T11:01:07.887Z,46.10
2019-04-06T11:02:53.180Z,46.50
2019-04-06T11:04:29.843Z,46.80
2019-04-06T11:06:07.684Z,47.20
2019-04-06T11:07:50.466Z,45.60
2019-04-06T11:09:40.039Z,48.00
2019-04-06T11:11:20.651Z,46.20
2019-04-06T11:13:08.085Z,47.40
2019-04-06T11:14:56.328Z,47.80
2019-04-06T11:16:37.420Z,46.50
2019-04-06T11:18:29.149Z,48.60
2019-04-06T11:20:09.694Z,48.70
2019-04-06T11:22:01.603Z,45.70
2019-04-06T11:23:43.006Z,47.70
2019-04-06T11:25:21.059Z,46.10
2019-04-06T11:27:21.861Z,47.00
2019-04-06T11:29:22.894Z,48.20
2019-04-06T11:31:20.468Z,47.20
2019-04-06T11:33:02.941Z,46.20
2019-04-06T11:35:00.760Z,48.40
2019-04-06T11:36:56.736Z,46.80
2019-04-06T11:38:40.808Z,45.90
2019-04-06T11:40:38.989Z,49.00
2019-04-06T11:42:30.744Z,48.80
2019-04-06T11:44:11.480Z,47.50
2019-04-06T11:45:50.888Z,48.50
2019-04-06T11:47:42.532Z,48.20
2019-04-06T11:49:32.880Z,48.20
2019-04-06T11:51:31.445Z,48.50
2019-04-06T11:53:10.194Z,47.70
2019-04-06T11:54:58.103Z,48.50
2019-04-06T11:56:44.897Z,47.80
2019-04-06T11:58:24.536Z,49.60
2019-04-06T12:00:07.683Z,48.10
2019-04-06T12:01:57.507Z,48.60
2019-04-06T12:03:39.845Z,50.70
2019-04-06T12:05:49.545Z,51.20
2019-04-06T12:07:39.882Z,50.40
2019-04-06T12:09:37.956Z,51.80
2019-04-06T12:11:32.767Z,51.90
2019-04-06T12:13:22.191Z,52.00
2019-04-06T12:15:09.491Z,51.60
2019-04-06T12:17:00.310Z,51.30
2019-04-06T12:18:39.410Z,52.30
2019-04-06T12:20:31.317Z,52.00
2019-04-06T12:22:21.832Z,53.50
2019-04-06T12:24:13.631Z,53.40
2019-04-06T12:26:11.030Z,53.50
2019-04-06T12:28:12.301Z,54.60
2019-04-06T12:29:55.187Z,54.30
2019-04-06T12:31:40.040Z,53.60
2019-04-06T12:33:29.268Z,54.50
2019-04-06T12:35:10.063Z,54.10
2019-04-06T12:37:16.829Z,54.60
2019-04-06T12:39:14.372Z,55.20
2019-04-06T12:40:56.323Z,55.30
2019-04-06T12:42:53.955Z,54.60
2019-04-06T12:44:44.202Z,55.00
2019-04-06T12:46:50.856Z,56.10
2019-04-06T12:48:42.786Z,56.30
2019-04-06T12:50:26.245Z,56.50
2019-04-06T12:52:17.150Z,56.20
2019-04-06T12:54:08.209Z,56.20
2019-04-06T12:55:50.529Z,56.10
2019-04-06T12:57:36.484Z,56.30
2019-04-06T12:59:26.740Z,56.20
2019-04-06T13:01:33.712Z,56.40
2019-04-06T13:03:28.933Z,56.30
2019-04-06T13:05:19.216Z,56.20
2019-04-06T13:07:16.718Z,56.60
2019-04-06T13:09:00.912Z,56.50
2019-04-06T13:10:54.586Z,56.00
2019-04-06T13:12:39.380Z,56.90
2019-04-06T13:14:35.776Z,56.50
2019-04-06T13:16:26.568Z,56.80
2019-04-06T13:18:11.015Z,56.60
2019-04-06T13:20:01.215Z,56.70
2019-04-06T13:22:11.517Z,56.50
2019-04-06T13:24:06.540Z,55.90
2019-04-06T13:25:57.412Z,55.90
2019-04-06T13:27:52.276Z,56.00
2019-04-06T13:29:41.127Z,55.50
2019-04-06T13:31:18.696Z,56.70
2019-04-06T13:33:22.984Z,57.00
2019-04-06T13:35:15.522Z,56.80
2019-04-06T13:37:05.988Z,57.00
2019-04-06T13:38:55.060Z,55.90
2019-04-06T13:40:42.756Z,56.80
2019-04-06T13:42:40.591Z,56.80
2019-04-06T13:44:35.087Z,56.70
2019-04-06T13:46:32.806Z,56.90
2019-04-06T13:48:30.449Z,57.20
2019-04-06T13:50:21.258Z,57.60
2019-04-06T13:52:11.550Z,56.90
2019-04-06T13:53:51.375Z,56.70
2019-04-06T13:55:45.625Z,57.40
2019-04-06T13:57:32.892Z,57.50
2019-04-06T13:59:20.387Z,57.40
2019-04-06T14:01:14.409Z,57.20
2019-04-06T14:02:57.388Z,56.90
2019-04-06T14:04:44.715Z,57.90
2019-04-06T14:06:42.318Z,56.90
2019-04-06T14:08:34.192Z,57.40
2019-04-06T14:10:12.854Z,58.00
2019-04-06T14:12:03.123Z,58.30
2019-04-06T14:13:47.682Z,57.60
2019-04-06T14:15:35.236Z,57.40
2019-04-06T14:17:25.335Z,57.60
2019-04-06T14:19:33.161Z,57.20
2019-04-06T14:21:22.356Z,56.40
2019-04-06T14:23:13.681Z,57.00
2019-04-06T14:24:58.837Z,57.40
2019-04-06T14:26:56.333Z,57.60
2019-04-06T14:28:37.556Z,56.90
2019-04-06T14:30:22.816Z,58.00
2019-04-06T14:32:14.619Z,57.60
2019-04-06T14:34:09.029Z,57.00
2019-04-06T14:36:18.864Z,57.10
2019-04-06T14:38:12.641Z,56.90
2019-04-06T14:40:16.667Z,56.50
2019-04-06T14:42:03.224Z,57.30
2019-04-06T14:43:49.042Z,57.20
2019-04-06T14:45:55.806Z,57.20
2019-04-06T14:47:45.879Z,57.20
2019-04-06T14:49:33.072Z,57.70
2019-04-06T14:51:27.316Z,57.80
2019-04-06T14:53:27.957Z,56.70
2019-04-06T14:55:07.986Z,57.30
2019-04-06T14:57:00.335Z,57.40
2019-04-06T14:58:51.069Z,57.70
2019-04-06T15:00:42.477Z,57.50
2019-04-06T15:02:49.274Z,57.60
2019-04-06T15:04:31.353Z,58.00
2019-04-06T15:06:38.265Z,58.60
2019-04-06T15:08:30.009Z,58.10
2019-04-06T15:10:16.420Z,58.40
2019-04-06T15:12:10.406Z,58.10
2019-04-06T15:14:00.720Z,58.40
2019-04-06T15:15:52.460Z,58.40
2019-04-06T15:17:46.951Z,58.90
2019-04-06T15:19:42.163Z,58.50
2019-04-06T15:21:42.800Z,58.50
2019-04-06T15:23:43.831Z,58.40
2019-04-06T15:25:38.401Z,58.50
2019-04-06T15:27:35.822Z,58.40
2019-04-06T15:29:27.548Z,59.00
2019-04-06T15:31:19.622Z,58.70
2019-04-06T15:33:04.333Z,58.60
2019-04-06T15:34:56.386Z,58.60
2019-04-06T15:37:07.323Z,58.50
2019-04-06T15:38:48.607Z,58.30
2019-04-06T15:40:46.722Z,58.10
2019-04-06T15:42:57.177Z,58.10
2019-04-06T15:44:38.110Z,58.60
2019-04-06T15:46:30.113Z,59.10
2019-04-06T15:48:11.644Z,59.30
2019-04-06T15:50:18.472Z,58.60
2019-04-06T15:52:10.312Z,59.10
2019-04-06T15:54:06.931Z,59.00
2019-04-06T15:55:52.330Z,59.20
2019-04-06T15:57:33.228Z,59.30
2019-04-06T15:59:39.776Z,59.50
2019-04-06T16:01:29.897Z,59.60
2019-04-06T16:03:30.825Z,59.40
2019-04-06T16:05:24.603Z,59.40
2019-04-06T16:07:30.171Z,59.60
2019-04-06T16:09:17.182Z,59.40
2019-04-06T16:11:08.045Z,59.20
2019-04-06T16:12:52.434Z,59.70
2019-04-06T16:14:43.750Z,59.80
2019-04-06T16:16:20.634Z,59.80
2019-04-06T16:18:08.750Z,60.30
2019-04-06T16:19:56.504Z,60.20
2019-04-06T16:21:40.089Z,59.70
2019-04-06T16:23:24.736Z,59.90
2019-04-06T16:25:09.244Z,60.40
2019-04-06T16:27:03.573Z,60.20
2019-04-06T16:28:59.959Z,59.90
2019-04-06T16:30:54.419Z,60.50
2019-04-06T16:32:48.987Z,60.70
2019-04-06T16:34:32.805Z,60.60
2019-04-06T16:36:40.423Z,60.40
2019-04-06T16:38:23.127Z,60.60
2019-04-06T16:40:21.372Z,60.10
2019-04-06T16:42:13.300Z,60.80
2019-04-06T16:44:07.893Z,61.00
2019-04-06T16:46:02.450Z,61.50
2019-04-06T16:47:56.985Z,60.70
2019-04-06T16:49:48.796Z,61.50
2019-04-06T16:51:28.706Z,61.80
2019-04-06T16:53:20.514Z,60.40
2019-04-06T16:55:15.031Z,61.00
2019-04-06T16:56:57.123Z,61.50
2019-04-06T16:58:57.796Z,61.80
2019-04-06T17:00:52.343Z,61.90
2019-04-06T17:02:37.598Z,62.10
2019-04-06T17:04:23.324Z,61.90
2019-04-06T17:06:06.458Z,62.30
2019-04-06T17:08:13.980Z,62.20
2019-04-06T17:10:05.852Z,62.10
2019-04-06T17:11:56.868Z,61.50
2019-04-06T17:13:47.204Z,61.90
2019-04-06T17:15:38.775Z,62.10
2019-04-06T17:17:38.084Z,62.10
2019-04-06T17:19:30.552Z,62.60
2019-04-06T17:21:25.411Z,63.00
2019-04-06T17:23:17.236Z,63.10
2019-04-06T17:25:27.120Z,63.30
2019-04-06T17:27:09.477Z,63.60
2019-04-06T17:29:03.761Z,63.60
2019-04-06T17:30:52.686Z,63.70
2019-04-06T17:32:37.234Z,63.70
2019-04-06T17:34:18.294Z,63.90
2019-04-06T17:35:58.480Z,64.30
2019-04-06T17:37:42.113Z,64.20
2019-04-06T17:39:33.611Z,64.10
2019-04-06T17:41:25.351Z,64.20
2019-04-06T17:43:31.930Z,64.10
2019-04-06T17:45:28.948Z,64.00
2019-04-06T17:47:32.904Z,64.30
2019-04-06T17:49:28.247Z,64.20
2019-04-06T17:51:04.825Z,64.40
2019-04-06T17:53:05.417Z,64.40
2019-04-06T17:54:50.401Z,64.40
2019-04-06T17:56:50.100Z,64.60
2019-04-06T17:58:34.797Z,64.80
2019-04-06T18:00:26.299Z,65.20
2019-04-06T18:02:26.816Z,65.50
2019-04-06T18:04:17.767Z,65.40
2019-04-06T18:06:01.772Z,65.20
2019-04-06T18:07:43.125Z,65.90
2019-04-06T18:09:37.430Z,66.30
2019-04-06T18:11:38.058Z,67.10
2019-04-06T18:13:25.652Z,66.20
2019-04-06T18:14:57.954Z,65.80
2019-04-06T18:16:33.747Z,65.70
2019-04-06T18:18:06.014Z,66.10
2019-04-06T18:19:38.374Z,66.00
2019-04-06T18:21:10.755Z,65.80
2019-04-06T18:22:42.901Z,66.80
2019-04-06T18:24:15.162Z,65.80
2019-04-06T18:25:47.428Z,65.90
2019-04-06T18:27:19.550Z,66.00
2019-04-06T18:28:51.714Z,66.00
2019-04-06T18:30:23.848Z,65.90
2019-04-06T18:32:05.768Z,66.10
2019-04-06T18:33:38.061Z,66.30
2019-04-06T18:35:10.819Z,66.30
2019-04-06T18:36:55.751Z,67.00
2019-04-06T18:38:34.750Z,66.40
2019-04-06T18:40:12.545Z,66.40
2019-04-06T18:41:44.820Z,66.50
2019-04-06T18:43:17.038Z,66.80
2019-04-06T18:44:49.156Z,66.80
2019-04-06T18:46:21.424Z,66.90
2019-04-06T18:47:53.696Z,66.90
2019-04-06T18:49:26.035Z,67.00
2019-04-06T18:50:58.266Z,67.30
2019-04-06T18:52:30.557Z,67.40
2019-04-06T18:54:04.136Z,67.10
2019-04-06T18:55:36.880Z,67.10
2019-04-06T18:57:09.192Z,67.40
2019-04-06T18:58:41.349Z,67.30
2019-04-06T19:00:14.092Z,67.80
2019-04-06T19:01:48.484Z,67.70
2019-04-06T19:03:20.908Z,67.80
2019-04-06T19:04:53.256Z,68.00
2019-04-06T19:06:25.508Z,68.10
2019-04-06T19:07:57.757Z,68.10
2019-04-06T19:09:30.248Z,68.40
2019-04-06T19:11:03.041Z,68.60
2019-04-06T19:12:35.361Z,68.90
2019-04-06T19:14:07.881Z,69.20
2019-04-06T19:15:40.087Z,69.30
2019-04-06T19:17:12.807Z,69.40
2019-04-06T19:18:45.436Z,69.60
2019-04-06T19:20:17.784Z,69.50
2019-04-06T19:21:49.896Z,69.90
2019-04-06T19:23:22.185Z,70.10
2019-04-06T19:24:54.435Z,70.20
2019-04-06T19:26:26.580Z,70.20
2019-04-06T19:27:58.737Z,70.10
2019-04-06T19:29:31.054Z,69.70
2019-04-06T19:31:03.160Z,69.70
2019-04-06T19:32:35.535Z,69.70
2019-04-06T19:34:07.688Z,70.00
2019-04-06T19:35:40.347Z,69.70
2019-04-06T19:37:12.775Z,69.80
2019-04-06T19:38:44.876Z,70.00
2019-04-06T19:40:17.180Z,70.10
2019-04-06T19:41:49.500Z,70.00
2019-04-06T19:43:21.891Z,70.00
2019-04-06T19:44:54.582Z,69.90
2019-04-06T19:46:27.155Z,70.10
2019-04-06T19:47:59.444Z,70.00
2019-04-06T19:49:31.817Z,70.20
2019-04-06T19:51:04.021Z,70.30
2019-04-06T19:52:36.097Z,70.20
2019-04-06T19:54:08.336Z,70.70
2019-04-06T19:55:41.029Z,70.70
2019-04-06T19:57:13.286Z,70.70
2019-04-06T19:58:45.395Z,70.80
2019-04-06T20:00:17.939Z,70.70
2019-04-06T20:01:50.277Z,70.80
2019-04-06T20:03:33.682Z,70.70
2019-04-06T20:04:56.522Z,70.70
2019-04-06T20:06:28.776Z,71.40
2019-04-06T20:08:01.391Z,71.10
2019-04-06T20:09:33.784Z,71.00
2019-04-06T20:11:06.338Z,70.80
2019-04-06T20:12:40.015Z,70.80
2019-04-06T20:14:12.318Z,70.70
2019-04-06T20:15:44.457Z,71.10
2019-04-06T20:17:16.754Z,71.30
2019-04-06T20:18:49.073Z,71.80
2019-04-06T20:20:21.208Z,71.70
2019-04-06T20:21:53.492Z,71.30
2019-04-06T20:23:25.647Z,71.10
2019-04-06T20:24:57.759Z,71.00
2019-04-06T20:26:31.646Z,70.90
2019-04-06T20:28:04.088Z,71.10
2019-04-06T20:29:36.459Z,71.00
2019-04-06T20:31:08.681Z,70.80
2019-04-06T20:32:40.920Z,71.30
2019-04-06T20:34:13.265Z,71.70
2019-04-06T20:35:49.956Z,72.00
2019-04-06T20:37:26.353Z,71.90
2019-04-06T20:38:58.696Z,72.30
2019-04-06T20:40:31.316Z,72.50
2019-04-06T20:42:03.990Z,72.60
2019-04-06T20:43:36.806Z,72.80
2019-04-06T20:45:09.282Z,72.50
2019-04-06T20:46:41.658Z,72.40
2019-04-06T20:48:14.022Z,71.90
2019-04-06T20:49:46.401Z,71.80
2019-04-06T20:51:18.939Z,72.10
2019-04-06T20:52:51.193Z,72.20
2019-04-06T20:54:23.439Z,72.10
2019-04-06T20:55:55.633Z,71.90
2019-04-06T20:57:28.386Z,72.00
2019-04-06T20:59:01.400Z,72.30
2019-04-06T21:00:33.723Z,72.10
2019-04-06T21:02:05.957Z,72.40
2019-04-06T21:03:38.156Z,72.40
2019-04-06T21:05:10.580Z,72.80
2019-04-06T21:06:42.873Z,73.10
2019-04-06T21:08:15.576Z,72.50
2019-04-06T21:09:48.400Z,72.70
2019-04-06T21:11:20.813Z,73.40
2019-04-06T21:12:53.095Z,72.80
2019-04-06T21:14:25.223Z,73.30
2019-04-06T21:15:57.702Z,73.70
2019-04-06T21:17:30.020Z,73.60
2019-04-06T21:19:02.984Z,73.70
2019-04-06T21:20:35.284Z,74.00
2019-04-06T21:22:07.905Z,74.40
2019-04-06T21:23:40.393Z,74.40
2019-04-06T21:25:12.534Z,74.00
2019-04-06T21:26:44.624Z,74.40
2019-04-06T21:28:16.835Z,74.70